sensor_id;sensor_type;location;lat;lon;timestamp;P1;durP1;ratioP1;P2;durP2;ratioP2
31734;SDS011;18313;48.518;9.124;2022-11-20T00:02:09;3.80;;;1.85;;
31734;SDS011;18313;48.518;9.124;2022-11-20T00:04:55;5.13;;;2.05;;
31734;SDS011;18313;48.518;9.124;2022-11-20T00:07:41;2.88;;;1.92;;
31734;SDS011;18313;48.518;9.124;2022-11-20T00:10:26;2.70;;;1.92;;
31734;SDS011;18313;48.518;9.124;2022-11-20T00:13:11;3.58;;;2.15;;
31734;SDS011;18313;48.518;9.124;2022-11-20T00:15:58;4.05;;;2.08;;
31734;SDS011;18313;48.518;9.124;2022-11-20T00:18:44;3.80;;;2.22;;
31734;SDS011;18313;48.518;9.124;2022-11-20T00:21:30;4.30;;;2.47;;
31734;SDS011;18313;48.518;9.124;2022-11-20T00:24:16;5.60;;;2.67;;
31734;SDS011;18313;48.518;9.124;2022-11-20T00:27:01;6.88;;;2.90;;
31734;SDS011;18313;48.518;9.124;2022-11-20T00:29:47;5.07;;;2.65;;
31734;SDS011;18313;48.518;9.124;2022-11-20T00:32:32;4.10;;;2.60;;
31734;SDS011;18313;48.518;9.124;2022-11-20T00:35:18;6.45;;;2.75;;
31734;SDS011;18313;48.518;9.124;2022-11-20T00:38:04;5.82;;;2.88;;
31734;SDS011;18313;48.518;9.124;2022-11-20T00:40:54;4.90;;;2.88;;
31734;SDS011;18313;48.518;9.124;2022-11-20T00:43:41;4.75;;;2.83;;
31734;SDS011;18313;48.518;9.124;2022-11-20T00:46:27;5.60;;;2.70;;
31734;SDS011;18313;48.518;9.124;2022-11-20T00:49:13;4.38;;;2.50;;
31734;SDS011;18313;48.518;9.124;2022-11-20T00:51:58;5.38;;;2.72;;
31734;SDS011;18313;48.518;9.124;2022-11-20T00:54:44;5.07;;;2.92;;
31734;SDS011;18313;48.518;9.124;2022-11-20T00:57:29;6.25;;;3.00;;
31734;SDS011;18313;48.518;9.124;2022-11-20T01:00:15;4.43;;;2.97;;
31734;SDS011;18313;48.518;9.124;2022-11-20T01:03:01;5.00;;;3.05;;
31734;SDS011;18313;48.518;9.124;2022-11-20T01:05:46;4.95;;;2.75;;
31734;SDS011;18313;48.518;9.124;2022-11-20T01:08:32;4.85;;;3.58;;
31734;SDS011;18313;48.518;9.124;2022-11-20T01:11:20;6.38;;;3.75;;
31734;SDS011;18313;48.518;9.124;2022-11-20T01:14:17;8.30;;;4.03;;
31734;SDS011;18313;48.518;9.124;2022-11-20T01:17:04;6.55;;;3.97;;
31734;SDS011;18313;48.518;9.124;2022-11-20T01:19:49;7.22;;;4.43;;
31734;SDS011;18313;48.518;9.124;2022-11-20T01:22:35;7.10;;;3.80;;
31734;SDS011;18313;48.518;9.124;2022-11-20T01:25:21;7.70;;;4.05;;
31734;SDS011;18313;48.518;9.124;2022-11-20T01:28:07;5.80;;;3.85;;
31734;SDS011;18313;48.518;9.124;2022-11-20T01:30:52;6.88;;;3.92;;
31734;SDS011;18313;48.518;9.124;2022-11-20T01:33:39;5.32;;;3.55;;
31734;SDS011;18313;48.518;9.124;2022-11-20T01:36:27;7.55;;;4.57;;
31734;SDS011;18313;48.518;9.124;2022-11-20T01:39:18;10.63;;;4.38;;
31734;SDS011;18313;48.518;9.124;2022-11-20T01:42:07;7.88;;;4.07;;
31734;SDS011;18313;48.518;9.124;2022-11-20T01:54:22;6.95;;;3.95;;
31734;SDS011;18313;48.518;9.124;2022-11-20T01:57:20;6.47;;;3.63;;
31734;SDS011;18313;48.518;9.124;2022-11-20T02:00:08;6.72;;;4.13;;
31734;SDS011;18313;48.518;9.124;2022-11-20T02:03:12;8.70;;;4.55;;
31734;SDS011;18313;48.518;9.124;2022-11-20T02:06:14;7.05;;;4.78;;
31734;SDS011;18313;48.518;9.124;2022-11-20T02:09:07;10.15;;;4.50;;
31734;SDS011;18313;48.518;9.124;2022-11-20T02:11:53;7.35;;;4.10;;
31734;SDS011;18313;48.518;9.124;2022-11-20T02:14:39;5.25;;;3.85;;
31734;SDS011;18313;48.518;9.124;2022-11-20T02:17:25;4.72;;;3.50;;
31734;SDS011;18313;48.518;9.124;2022-11-20T02:20:10;6.20;;;3.80;;
31734;SDS011;18313;48.518;9.124;2022-11-20T02:22:59;7.32;;;3.70;;
31734;SDS011;18313;48.518;9.124;2022-11-20T02:25:57;6.75;;;3.88;;
31734;SDS011;18313;48.518;9.124;2022-11-20T02:28:45;5.75;;;3.10;;
31734;SDS011;18313;48.518;9.124;2022-11-20T02:31:38;6.97;;;3.30;;
31734;SDS011;18313;48.518;9.124;2022-11-20T02:34:27;6.85;;;3.88;;
31734;SDS011;18313;48.518;9.124;2022-11-20T02:37:13;5.18;;;3.33;;
31734;SDS011;18313;48.518;9.124;2022-11-20T02:39:59;5.95;;;2.95;;
31734;SDS011;18313;48.518;9.124;2022-11-20T02:42:46;5.57;;;3.03;;
31734;SDS011;18313;48.518;9.124;2022-11-20T02:45:31;3.95;;;2.88;;
31734;SDS011;18313;48.518;9.124;2022-11-20T02:48:17;6.10;;;3.15;;
31734;SDS011;18313;48.518;9.124;2022-11-20T02:51:02;5.32;;;3.17;;
31734;SDS011;18313;48.518;9.124;2022-11-20T02:53:48;4.80;;;2.88;;
31734;SDS011;18313;48.518;9.124;2022-11-20T02:56:34;4.95;;;3.15;;
31734;SDS011;18313;48.518;9.124;2022-11-20T02:59:19;6.30;;;2.70;;
31734;SDS011;18313;48.518;9.124;2022-11-20T03:02:05;5.20;;;2.70;;
31734;SDS011;18313;48.518;9.124;2022-11-20T03:04:50;6.78;;;2.60;;
31734;SDS011;18313;48.518;9.124;2022-11-20T03:07:36;6.75;;;2.63;;
31734;SDS011;18313;48.518;9.124;2022-11-20T03:10:21;5.60;;;3.08;;
31734;SDS011;18313;48.518;9.124;2022-11-20T03:13:07;4.97;;;2.63;;
31734;SDS011;18313;48.518;9.124;2022-11-20T03:15:53;4.53;;;2.80;;
31734;SDS011;18313;48.518;9.124;2022-11-20T03:18:39;5.78;;;2.58;;
31734;SDS011;18313;48.518;9.124;2022-11-20T03:21:25;4.75;;;2.58;;
31734;SDS011;18313;48.518;9.124;2022-11-20T03:24:11;5.40;;;2.83;;
31734;SDS011;18313;48.518;9.124;2022-11-20T03:26:56;3.45;;;2.30;;
31734;SDS011;18313;48.518;9.124;2022-11-20T03:29:42;3.58;;;2.30;;
31734;SDS011;18313;48.518;9.124;2022-11-20T03:32:27;4.85;;;2.55;;
31734;SDS011;18313;48.518;9.124;2022-11-20T03:35:12;4.40;;;2.60;;
31734;SDS011;18313;48.518;9.124;2022-11-20T03:37:58;4.07;;;2.50;;
31734;SDS011;18313;48.518;9.124;2022-11-20T03:40:43;4.90;;;2.40;;
31734;SDS011;18313;48.518;9.124;2022-11-20T03:43:29;4.70;;;2.40;;
31734;SDS011;18313;48.518;9.124;2022-11-20T03:46:15;3.05;;;2.17;;
31734;SDS011;18313;48.518;9.124;2022-11-20T03:49:00;3.90;;;2.30;;
31734;SDS011;18313;48.518;9.124;2022-11-20T03:51:46;4.65;;;2.50;;
31734;SDS011;18313;48.518;9.124;2022-11-20T03:54:32;4.30;;;2.30;;
31734;SDS011;18313;48.518;9.124;2022-11-20T03:57:17;5.80;;;2.00;;
31734;SDS011;18313;48.518;9.124;2022-11-20T04:00:04;4.45;;;2.38;;
31734;SDS011;18313;48.518;9.124;2022-11-20T04:02:50;4.20;;;1.90;;
31734;SDS011;18313;48.518;9.124;2022-11-20T04:05:35;3.72;;;2.15;;
31734;SDS011;18313;48.518;9.124;2022-11-20T04:08:21;5.07;;;2.10;;
31734;SDS011;18313;48.518;9.124;2022-11-20T04:11:11;3.60;;;1.90;;
31734;SDS011;18313;48.518;9.124;2022-11-20T04:14:02;4.68;;;2.35;;
31734;SDS011;18313;48.518;9.124;2022-11-20T04:16:49;2.97;;;1.75;;
31734;SDS011;18313;48.518;9.124;2022-11-20T04:19:35;4.07;;;1.88;;
31734;SDS011;18313;48.518;9.124;2022-11-20T04:22:21;3.22;;;1.90;;
31734;SDS011;18313;48.518;9.124;2022-11-20T04:25:06;4.57;;;2.00;;
31734;SDS011;18313;48.518;9.124;2022-11-20T04:27:52;3.70;;;1.75;;
31734;SDS011;18313;48.518;9.124;2022-11-20T04:30:38;3.03;;;1.70;;
31734;SDS011;18313;48.518;9.124;2022-11-20T04:33:24;2.63;;;1.58;;
31734;SDS011;18313;48.518;9.124;2022-11-20T04:36:13;2.88;;;1.77;;
31734;SDS011;18313;48.518;9.124;2022-11-20T04:39:04;3.15;;;1.80;;
31734;SDS011;18313;48.518;9.124;2022-11-20T04:41:50;2.67;;;1.60;;
31734;SDS011;18313;48.518;9.124;2022-11-20T04:44:56;4.03;;;1.80;;
31734;SDS011;18313;48.518;9.124;2022-11-20T04:47:43;3.20;;;1.90;;
31734;SDS011;18313;48.518;9.124;2022-11-20T04:50:28;2.97;;;1.80;;
31734;SDS011;18313;48.518;9.124;2022-11-20T04:53:14;3.33;;;1.70;;
31734;SDS011;18313;48.518;9.124;2022-11-20T04:56:04;2.58;;;1.63;;
31734;SDS011;18313;48.518;9.124;2022-11-20T04:58:51;4.30;;;1.80;;
31734;SDS011;18313;48.518;9.124;2022-11-20T05:01:36;2.97;;;1.60;;
31734;SDS011;18313;48.518;9.124;2022-11-20T05:04:22;3.00;;;1.60;;
31734;SDS011;18313;48.518;9.124;2022-11-20T05:07:08;2.72;;;1.40;;
31734;SDS011;18313;48.518;9.124;2022-11-20T05:09:53;3.45;;;1.65;;
31734;SDS011;18313;48.518;9.124;2022-11-20T05:12:39;3.30;;;1.70;;
31734;SDS011;18313;48.518;9.124;2022-11-20T05:15:25;4.60;;;1.80;;
31734;SDS011;18313;48.518;9.124;2022-11-20T05:18:11;2.63;;;1.50;;
31734;SDS011;18313;48.518;9.124;2022-11-20T05:20:57;4.90;;;1.52;;
31734;SDS011;18313;48.518;9.124;2022-11-20T05:23:43;2.15;;;1.42;;
31734;SDS011;18313;48.518;9.124;2022-11-20T05:26:29;2.90;;;1.67;;
31734;SDS011;18313;48.518;9.124;2022-11-20T05:29:15;4.75;;;1.67;;
31734;SDS011;18313;48.518;9.124;2022-11-20T05:32:00;4.38;;;1.55;;
31734;SDS011;18313;48.518;9.124;2022-11-20T05:34:46;3.92;;;1.80;;
31734;SDS011;18313;48.518;9.124;2022-11-20T05:37:32;6.10;;;1.52;;
31734;SDS011;18313;48.518;9.124;2022-11-20T05:40:17;3.58;;;1.50;;
31734;SDS011;18313;48.518;9.124;2022-11-20T05:43:03;3.88;;;1.65;;
31734;SDS011;18313;48.518;9.124;2022-11-20T05:45:54;2.55;;;1.70;;
31734;SDS011;18313;48.518;9.124;2022-11-20T05:48:40;4.65;;;1.80;;
31734;SDS011;18313;48.518;9.124;2022-11-20T05:51:26;3.90;;;1.80;;
31734;SDS011;18313;48.518;9.124;2022-11-20T05:54:12;2.53;;;1.60;;
31734;SDS011;18313;48.518;9.124;2022-11-20T05:56:57;3.33;;;1.50;;
31734;SDS011;18313;48.518;9.124;2022-11-20T05:59:43;3.10;;;1.40;;
31734;SDS011;18313;48.518;9.124;2022-11-20T06:02:29;3.10;;;1.60;;
31734;SDS011;18313;48.518;9.124;2022-11-20T06:05:14;2.42;;;1.50;;
31734;SDS011;18313;48.518;9.124;2022-11-20T06:08:00;2.55;;;1.58;;
31734;SDS011;18313;48.518;9.124;2022-11-20T06:10:46;2.65;;;1.73;;
31734;SDS011;18313;48.518;9.124;2022-11-20T06:13:31;3.50;;;1.80;;
31734;SDS011;18313;48.518;9.124;2022-11-20T06:16:21;2.67;;;1.70;;
31734;SDS011;18313;48.518;9.124;2022-11-20T06:19:06;3.53;;;1.48;;
31734;SDS011;18313;48.518;9.124;2022-11-20T06:21:52;3.17;;;1.55;;
31734;SDS011;18313;48.518;9.124;2022-11-20T06:24:37;2.60;;;1.30;;
31734;SDS011;18313;48.518;9.124;2022-11-20T06:27:23;2.28;;;1.45;;
31734;SDS011;18313;48.518;9.124;2022-11-20T06:30:09;2.30;;;1.50;;
31734;SDS011;18313;48.518;9.124;2022-11-20T06:32:54;3.10;;;1.70;;
31734;SDS011;18313;48.518;9.124;2022-11-20T06:35:40;3.03;;;1.40;;
31734;SDS011;18313;48.518;9.124;2022-11-20T06:38:26;2.88;;;1.60;;
31734;SDS011;18313;48.518;9.124;2022-11-20T06:41:13;3.50;;;1.52;;
31734;SDS011;18313;48.518;9.124;2022-11-20T06:44:04;3.53;;;1.60;;
31734;SDS011;18313;48.518;9.124;2022-11-20T06:46:50;3.25;;;1.60;;
31734;SDS011;18313;48.518;9.124;2022-11-20T06:49:35;4.20;;;1.60;;
31734;SDS011;18313;48.518;9.124;2022-11-20T06:52:23;3.58;;;1.80;;
31734;SDS011;18313;48.518;9.124;2022-11-20T06:55:09;3.47;;;1.50;;
31734;SDS011;18313;48.518;9.124;2022-11-20T06:57:54;4.97;;;2.60;;
31734;SDS011;18313;48.518;9.124;2022-11-20T07:00:40;4.38;;;2.00;;
31734;SDS011;18313;48.518;9.124;2022-11-20T07:03:26;4.10;;;1.98;;
31734;SDS011;18313;48.518;9.124;2022-11-20T07:06:11;3.05;;;1.60;;
31734;SDS011;18313;48.518;9.124;2022-11-20T07:08:57;4.22;;;1.60;;
31734;SDS011;18313;48.518;9.124;2022-11-20T07:11:42;3.05;;;1.60;;
31734;SDS011;18313;48.518;9.124;2022-11-20T07:14:28;3.35;;;1.45;;
31734;SDS011;18313;48.518;9.124;2022-11-20T07:17:13;2.70;;;1.58;;
31734;SDS011;18313;48.518;9.124;2022-11-20T07:19:59;2.47;;;1.60;;
31734;SDS011;18313;48.518;9.124;2022-11-20T07:22:44;1.90;;;1.40;;
31734;SDS011;18313;48.518;9.124;2022-11-20T07:25:30;2.72;;;1.42;;
31734;SDS011;18313;48.518;9.124;2022-11-20T07:28:19;3.08;;;1.40;;
31734;SDS011;18313;48.518;9.124;2022-11-20T07:31:05;2.42;;;1.50;;
31734;SDS011;18313;48.518;9.124;2022-11-20T07:33:52;3.88;;;1.60;;
31734;SDS011;18313;48.518;9.124;2022-11-20T07:36:37;2.70;;;1.60;;
31734;SDS011;18313;48.518;9.124;2022-11-20T07:39:23;3.38;;;1.40;;
31734;SDS011;18313;48.518;9.124;2022-11-20T07:42:09;3.83;;;1.52;;
31734;SDS011;18313;48.518;9.124;2022-11-20T07:44:57;2.78;;;1.30;;
31734;SDS011;18313;48.518;9.124;2022-11-20T07:47:44;2.42;;;1.60;;
31734;SDS011;18313;48.518;9.124;2022-11-20T07:50:30;3.20;;;1.48;;
31734;SDS011;18313;48.518;9.124;2022-11-20T07:53:15;2.92;;;1.38;;
31734;SDS011;18313;48.518;9.124;2022-11-20T07:56:05;3.10;;;1.25;;
31734;SDS011;18313;48.518;9.124;2022-11-20T07:58:51;2.20;;;1.30;;
31734;SDS011;18313;48.518;9.124;2022-11-20T08:01:37;2.63;;;1.40;;
31734;SDS011;18313;48.518;9.124;2022-11-20T08:04:23;2.60;;;1.40;;
31734;SDS011;18313;48.518;9.124;2022-11-20T08:07:09;2.25;;;1.30;;
31734;SDS011;18313;48.518;9.124;2022-11-20T08:09:54;3.67;;;1.20;;
31734;SDS011;18313;48.518;9.124;2022-11-20T08:12:47;3.33;;;1.40;;
31734;SDS011;18313;48.518;9.124;2022-11-20T08:15:52;2.60;;;1.35;;
31734;SDS011;18313;48.518;9.124;2022-11-20T08:18:38;2.85;;;1.50;;
31734;SDS011;18313;48.518;9.124;2022-11-20T08:21:23;2.92;;;1.42;;
31734;SDS011;18313;48.518;9.124;2022-11-20T08:24:10;3.85;;;1.70;;
31734;SDS011;18313;48.518;9.124;2022-11-20T08:26:57;5.25;;;2.50;;
31734;SDS011;18313;48.518;9.124;2022-11-20T08:29:43;3.50;;;1.80;;
31734;SDS011;18313;48.518;9.124;2022-11-20T08:32:29;2.72;;;1.60;;
31734;SDS011;18313;48.518;9.124;2022-11-20T08:35:14;3.50;;;1.30;;
31734;SDS011;18313;48.518;9.124;2022-11-20T08:38:00;3.33;;;1.25;;
31734;SDS011;18313;48.518;9.124;2022-11-20T08:40:46;2.10;;;1.48;;
31734;SDS011;18313;48.518;9.124;2022-11-20T08:46:39;2.42;;;1.50;;
31734;SDS011;18313;48.518;9.124;2022-11-20T08:49:26;3.53;;;1.83;;
31734;SDS011;18313;48.518;9.124;2022-11-20T08:52:11;3.50;;;2.10;;
31734;SDS011;18313;48.518;9.124;2022-11-20T08:54:57;5.38;;;2.90;;
31734;SDS011;18313;48.518;9.124;2022-11-20T08:57:42;3.08;;;1.65;;
31734;SDS011;18313;48.518;9.124;2022-11-20T09:00:34;3.13;;;1.40;;
31734;SDS011;18313;48.518;9.124;2022-11-20T09:03:20;2.22;;;1.20;;
31734;SDS011;18313;48.518;9.124;2022-11-20T09:06:06;4.07;;;1.52;;
31734;SDS011;18313;48.518;9.124;2022-11-20T09:08:52;1.77;;;1.17;;
31734;SDS011;18313;48.518;9.124;2022-11-20T09:11:38;1.98;;;1.08;;
31734;SDS011;18313;48.518;9.124;2022-11-20T09:14:23;1.80;;;1.23;;
31734;SDS011;18313;48.518;9.124;2022-11-20T09:17:14;2.70;;;1.20;;
31734;SDS011;18313;48.518;9.124;2022-11-20T09:19:59;2.35;;;1.13;;
31734;SDS011;18313;48.518;9.124;2022-11-20T09:22:45;2.20;;;1.10;;
31734;SDS011;18313;48.518;9.124;2022-11-20T09:25:30;2.90;;;1.60;;
31734;SDS011;18313;48.518;9.124;2022-11-20T09:28:15;2.33;;;0.90;;
31734;SDS011;18313;48.518;9.124;2022-11-20T09:31:07;1.65;;;1.00;;
31734;SDS011;18313;48.518;9.124;2022-11-20T09:33:54;1.73;;;1.00;;
31734;SDS011;18313;48.518;9.124;2022-11-20T09:36:39;1.05;;;0.80;;
31734;SDS011;18313;48.518;9.124;2022-11-20T09:39:25;3.15;;;1.80;;
31734;SDS011;18313;48.518;9.124;2022-11-20T09:45:15;7.07;;;2.70;;
31734;SDS011;18313;48.518;9.124;2022-11-20T09:54:34;3.78;;;1.20;;
31734;SDS011;18313;48.518;9.124;2022-11-20T09:57:33;3.50;;;1.53;;
31734;SDS011;18313;48.518;9.124;2022-11-20T10:00:21;2.90;;;1.27;;
31734;SDS011;18313;48.518;9.124;2022-11-20T10:03:13;5.22;;;2.78;;
31734;SDS011;18313;48.518;9.124;2022-11-20T10:06:04;2.38;;;1.30;;
31734;SDS011;18313;48.518;9.124;2022-11-20T10:11:53;8.48;;;3.17;;
31734;SDS011;18313;48.518;9.124;2022-11-20T10:15:12;4.22;;;1.60;;
31734;SDS011;18313;48.518;9.124;2022-11-20T10:21:00;1.58;;;0.90;;
31734;SDS011;18313;48.518;9.124;2022-11-20T10:24:03;1.48;;;0.95;;
31734;SDS011;18313;48.518;9.124;2022-11-20T10:30:24;2.05;;;1.10;;
31734;SDS011;18313;48.518;9.124;2022-11-20T10:39:54;2.38;;;1.20;;
31734;SDS011;18313;48.518;9.124;2022-11-20T10:42:11;1.85;;;1.25;;
31734;SDS011;18313;48.518;9.124;2022-11-20T10:45:09;1.70;;;1.00;;
31734;SDS011;18313;48.518;9.124;2022-11-20T10:48:20;2.45;;;1.10;;
31734;SDS011;18313;48.518;9.124;2022-11-20T11:00:45;1.52;;;1.00;;
31734;SDS011;18313;48.518;9.124;2022-11-20T11:03:31;1.08;;;0.82;;
31734;SDS011;18313;48.518;9.124;2022-11-20T11:06:26;2.80;;;1.30;;
31734;SDS011;18313;48.518;9.124;2022-11-20T11:09:21;1.63;;;1.13;;
31734;SDS011;18313;48.518;9.124;2022-11-20T11:12:15;1.13;;;0.90;;
31734;SDS011;18313;48.518;9.124;2022-11-20T11:15:01;1.58;;;0.90;;
31734;SDS011;18313;48.518;9.124;2022-11-20T11:17:47;2.40;;;1.10;;
31734;SDS011;18313;48.518;9.124;2022-11-20T11:20:32;1.05;;;0.80;;
31734;SDS011;18313;48.518;9.124;2022-11-20T11:26:23;0.85;;;0.77;;
31734;SDS011;18313;48.518;9.124;2022-11-20T11:29:16;2.17;;;0.80;;
31734;SDS011;18313;48.518;9.124;2022-11-20T11:32:11;1.25;;;0.85;;
31734;SDS011;18313;48.518;9.124;2022-11-20T11:35:02;1.92;;;0.90;;
31734;SDS011;18313;48.518;9.124;2022-11-20T11:37:49;2.58;;;1.10;;
31734;SDS011;18313;48.518;9.124;2022-11-20T11:40:35;1.73;;;0.82;;
31734;SDS011;18313;48.518;9.124;2022-11-20T11:43:26;2.45;;;0.85;;
31734;SDS011;18313;48.518;9.124;2022-11-20T11:46:33;2.42;;;0.80;;
31734;SDS011;18313;48.518;9.124;2022-11-20T11:49:21;1.83;;;1.00;;
31734;SDS011;18313;48.518;9.124;2022-11-20T11:54:59;2.92;;;1.38;;
31734;SDS011;18313;48.518;9.124;2022-11-20T11:58:08;3.10;;;0.95;;
31734;SDS011;18313;48.518;9.124;2022-11-20T12:01:02;3.03;;;1.00;;
31734;SDS011;18313;48.518;9.124;2022-11-20T12:04:09;2.53;;;1.27;;
31734;SDS011;18313;48.518;9.124;2022-11-20T12:07:03;4.32;;;2.00;;
31734;SDS011;18313;48.518;9.124;2022-11-20T12:10:40;5.03;;;1.90;;
31734;SDS011;18313;48.518;9.124;2022-11-20T12:13:46;20.58;;;7.60;;
31734;SDS011;18313;48.518;9.124;2022-11-20T12:16:35;13.85;;;5.63;;
31734;SDS011;18313;48.518;9.124;2022-11-20T12:19:22;2.38;;;1.08;;
31734;SDS011;18313;48.518;9.124;2022-11-20T12:22:32;1.80;;;0.90;;
31734;SDS011;18313;48.518;9.124;2022-11-20T12:25:36;2.22;;;0.93;;
31734;SDS011;18313;48.518;9.124;2022-11-20T12:28:27;2.17;;;1.08;;
31734;SDS011;18313;48.518;9.124;2022-11-20T12:31:31;2.58;;;0.90;;
31734;SDS011;18313;48.518;9.124;2022-11-20T12:34:27;2.38;;;0.90;;
31734;SDS011;18313;48.518;9.124;2022-11-20T12:43:27;1.55;;;0.82;;
31734;SDS011;18313;48.518;9.124;2022-11-20T12:46:42;1.40;;;0.60;;
31734;SDS011;18313;48.518;9.124;2022-11-20T12:49:38;1.85;;;0.80;;
31734;SDS011;18313;48.518;9.124;2022-11-20T12:52:27;1.35;;;0.80;;
31734;SDS011;18313;48.518;9.124;2022-11-20T12:55:41;1.13;;;0.80;;
31734;SDS011;18313;48.518;9.124;2022-11-20T13:05:24;1.42;;;0.80;;
31734;SDS011;18313;48.518;9.124;2022-11-20T13:08:27;2.63;;;1.30;;
31734;SDS011;18313;48.518;9.124;2022-11-20T13:18:00;4.57;;;2.42;;
31734;SDS011;18313;48.518;9.124;2022-11-20T13:20:47;2.40;;;0.90;;
31734;SDS011;18313;48.518;9.124;2022-11-20T13:23:34;2.30;;;0.90;;
31734;SDS011;18313;48.518;9.124;2022-11-20T13:26:21;2.58;;;0.95;;
31734;SDS011;18313;48.518;9.124;2022-11-20T13:29:11;1.60;;;1.00;;
31734;SDS011;18313;48.518;9.124;2022-11-20T13:32:18;3.93;;;1.20;;
31734;SDS011;18313;48.518;9.124;2022-11-20T13:35:05;1.73;;;1.00;;
31734;SDS011;18313;48.518;9.124;2022-11-20T13:38:00;2.45;;;0.90;;
31734;SDS011;18313;48.518;9.124;2022-11-20T13:40:55;3.13;;;1.75;;
31734;SDS011;18313;48.518;9.124;2022-11-20T13:43:42;1.83;;;0.90;;
31734;SDS011;18313;48.518;9.124;2022-11-20T13:46:39;2.75;;;1.13;;
31734;SDS011;18313;48.518;9.124;2022-11-20T13:49:37;2.60;;;1.05;;
31734;SDS011;18313;48.518;9.124;2022-11-20T13:55:44;5.07;;;0.80;;
31734;SDS011;18313;48.518;9.124;2022-11-20T14:01:56;3.35;;;1.65;;
31734;SDS011;18313;48.518;9.124;2022-11-20T14:04:42;3.63;;;1.35;;
31734;SDS011;18313;48.518;9.124;2022-11-20T14:07:38;2.20;;;0.90;;
31734;SDS011;18313;48.518;9.124;2022-11-20T14:10:27;4.03;;;1.20;;
31734;SDS011;18313;48.518;9.124;2022-11-20T14:13:20;2.33;;;1.00;;
31734;SDS011;18313;48.518;9.124;2022-11-20T14:16:05;3.38;;;0.95;;
31734;SDS011;18313;48.518;9.124;2022-11-20T14:18:51;3.85;;;1.73;;
31734;SDS011;18313;48.518;9.124;2022-11-20T14:21:37;2.75;;;1.10;;
31734;SDS011;18313;48.518;9.124;2022-11-20T14:24:23;3.08;;;1.50;;
31734;SDS011;18313;48.518;9.124;2022-11-20T14:27:11;3.55;;;1.05;;
31734;SDS011;18313;48.518;9.124;2022-11-20T14:30:00;2.00;;;0.90;;
31734;SDS011;18313;48.518;9.124;2022-11-20T14:32:46;3.58;;;1.05;;
31734;SDS011;18313;48.518;9.124;2022-11-20T14:35:37;1.50;;;1.10;;
31734;SDS011;18313;48.518;9.124;2022-11-20T14:38:30;2.80;;;1.00;;
31734;SDS011;18313;48.518;9.124;2022-11-20T14:41:21;2.83;;;1.00;;
31734;SDS011;18313;48.518;9.124;2022-11-20T14:44:08;3.13;;;1.40;;
31734;SDS011;18313;48.518;9.124;2022-11-20T14:46:55;4.57;;;1.10;;
31734;SDS011;18313;48.518;9.124;2022-11-20T14:49:41;4.43;;;1.15;;
31734;SDS011;18313;48.518;9.124;2022-11-20T14:52:27;6.43;;;1.40;;
31734;SDS011;18313;48.518;9.124;2022-11-20T14:55:13;2.50;;;1.08;;
31734;SDS011;18313;48.518;9.124;2022-11-20T14:58:22;4.10;;;1.20;;
31734;SDS011;18313;48.518;9.124;2022-11-20T15:01:11;2.90;;;1.48;;
31734;SDS011;18313;48.518;9.124;2022-11-20T15:03:59;6.40;;;1.45;;
31734;SDS011;18313;48.518;9.124;2022-11-20T15:06:50;3.85;;;1.70;;
31734;SDS011;18313;48.518;9.124;2022-11-20T15:09:40;2.38;;;1.42;;
31734;SDS011;18313;48.518;9.124;2022-11-20T15:12:25;4.22;;;1.60;;
31734;SDS011;18313;48.518;9.124;2022-11-20T15:15:11;6.22;;;3.10;;
31734;SDS011;18313;48.518;9.124;2022-11-20T15:18:02;2.97;;;1.30;;
31734;SDS011;18313;48.518;9.124;2022-11-20T15:20:48;2.28;;;1.45;;
31734;SDS011;18313;48.518;9.124;2022-11-20T15:23:35;4.93;;;2.15;;
31734;SDS011;18313;48.518;9.124;2022-11-20T15:26:23;4.18;;;2.20;;
31734;SDS011;18313;48.518;9.124;2022-11-20T15:29:11;3.60;;;1.90;;
31734;SDS011;18313;48.518;9.124;2022-11-20T15:31:59;3.58;;;1.70;;
31734;SDS011;18313;48.518;9.124;2022-11-20T15:34:45;3.00;;;1.20;;
31734;SDS011;18313;48.518;9.124;2022-11-20T15:37:30;3.60;;;1.88;;
31734;SDS011;18313;48.518;9.124;2022-11-20T15:40:15;4.00;;;1.33;;
31734;SDS011;18313;48.518;9.124;2022-11-20T15:43:01;4.78;;;1.70;;
31734;SDS011;18313;48.518;9.124;2022-11-20T15:46:01;7.95;;;3.00;;
31734;SDS011;18313;48.518;9.124;2022-11-20T15:48:51;3.13;;;1.60;;
31734;SDS011;18313;48.518;9.124;2022-11-20T15:51:41;3.13;;;1.30;;
31734;SDS011;18313;48.518;9.124;2022-11-20T15:54:28;2.60;;;1.10;;
31734;SDS011;18313;48.518;9.124;2022-11-20T15:57:14;3.50;;;1.40;;
31734;SDS011;18313;48.518;9.124;2022-11-20T15:59:59;3.55;;;1.90;;
31734;SDS011;18313;48.518;9.124;2022-11-20T16:02:45;5.05;;;2.40;;
31734;SDS011;18313;48.518;9.124;2022-11-20T16:05:30;7.55;;;2.70;;
31734;SDS011;18313;48.518;9.124;2022-11-20T16:08:16;7.63;;;3.90;;
31734;SDS011;18313;48.518;9.124;2022-11-20T16:11:02;11.70;;;4.60;;
31734;SDS011;18313;48.518;9.124;2022-11-20T16:13:47;7.35;;;3.25;;
31734;SDS011;18313;48.518;9.124;2022-11-20T16:16:51;6.90;;;3.17;;
31734;SDS011;18313;48.518;9.124;2022-11-20T16:19:37;5.40;;;2.00;;
31734;SDS011;18313;48.518;9.124;2022-11-20T16:22:22;7.50;;;3.65;;
31734;SDS011;18313;48.518;9.124;2022-11-20T16:25:08;10.00;;;4.00;;
31734;SDS011;18313;48.518;9.124;2022-11-20T16:27:54;4.78;;;1.70;;
31734;SDS011;18313;48.518;9.124;2022-11-20T16:30:39;2.67;;;1.40;;
31734;SDS011;18313;48.518;9.124;2022-11-20T16:33:25;4.75;;;1.55;;
31734;SDS011;18313;48.518;9.124;2022-11-20T16:36:12;2.35;;;1.40;;
31734;SDS011;18313;48.518;9.124;2022-11-20T16:38:59;2.28;;;1.58;;
31734;SDS011;18313;48.518;9.124;2022-11-20T16:41:46;2.97;;;1.30;;
31734;SDS011;18313;48.518;9.124;2022-11-20T16:44:31;4.97;;;2.78;;
31734;SDS011;18313;48.518;9.124;2022-11-20T16:47:18;3.35;;;1.80;;
31734;SDS011;18313;48.518;9.124;2022-11-20T16:50:04;5.07;;;1.70;;
31734;SDS011;18313;48.518;9.124;2022-11-20T16:52:50;3.35;;;1.25;;
31734;SDS011;18313;48.518;9.124;2022-11-20T16:55:36;5.68;;;1.45;;
31734;SDS011;18313;48.518;9.124;2022-11-20T16:58:21;5.10;;;2.67;;
31734;SDS011;18313;48.518;9.124;2022-11-20T17:01:07;3.58;;;1.70;;
31734;SDS011;18313;48.518;9.124;2022-11-20T17:03:55;8.07;;;4.10;;
31734;SDS011;18313;48.518;9.124;2022-11-20T17:06:42;5.03;;;2.65;;
31734;SDS011;18313;48.518;9.124;2022-11-20T17:09:28;3.80;;;1.98;;
31734;SDS011;18313;48.518;9.124;2022-11-20T17:12:14;4.53;;;1.80;;
31734;SDS011;18313;48.518;9.124;2022-11-20T17:15:00;3.10;;;1.48;;
31734;SDS011;18313;48.518;9.124;2022-11-20T17:17:45;3.55;;;1.60;;
31734;SDS011;18313;48.518;9.124;2022-11-20T17:20:30;3.80;;;1.50;;
31734;SDS011;18313;48.518;9.124;2022-11-20T17:23:16;3.00;;;1.38;;
31734;SDS011;18313;48.518;9.124;2022-11-20T17:28:52;3.13;;;1.30;;
31734;SDS011;18313;48.518;9.124;2022-11-20T17:31:45;4.47;;;1.90;;
31734;SDS011;18313;48.518;9.124;2022-11-20T17:34:32;1.80;;;1.05;;
31734;SDS011;18313;48.518;9.124;2022-11-20T17:37:18;1.67;;;1.10;;
31734;SDS011;18313;48.518;9.124;2022-11-20T17:40:03;1.85;;;1.10;;
31734;SDS011;18313;48.518;9.124;2022-11-20T17:42:49;2.83;;;1.40;;
31734;SDS011;18313;48.518;9.124;2022-11-20T17:45:35;2.95;;;1.60;;
31734;SDS011;18313;48.518;9.124;2022-11-20T17:48:20;3.05;;;1.75;;
31734;SDS011;18313;48.518;9.124;2022-11-20T17:51:06;2.95;;;1.40;;
31734;SDS011;18313;48.518;9.124;2022-11-20T17:53:58;2.83;;;1.50;;
31734;SDS011;18313;48.518;9.124;2022-11-20T17:56:45;4.00;;;1.63;;
31734;SDS011;18313;48.518;9.124;2022-11-20T17:59:56;2.95;;;1.55;;
31734;SDS011;18313;48.518;9.124;2022-11-20T18:02:42;4.03;;;1.73;;
31734;SDS011;18313;48.518;9.124;2022-11-20T18:05:28;4.05;;;1.70;;
31734;SDS011;18313;48.518;9.124;2022-11-20T18:08:14;2.55;;;1.10;;
31734;SDS011;18313;48.518;9.124;2022-11-20T18:10:59;3.60;;;1.10;;
31734;SDS011;18313;48.518;9.124;2022-11-20T18:13:47;2.90;;;1.30;;
31734;SDS011;18313;48.518;9.124;2022-11-20T18:16:54;2.53;;;1.30;;
31734;SDS011;18313;48.518;9.124;2022-11-20T18:19:42;2.08;;;1.10;;